createdAt,value
2018-06-22T00:02:18.933Z,10.72
2018-06-22T00:05:24.736Z,10.70
2018-06-22T00:08:31.813Z,10.72
2018-06-22T00:11:36.973Z,10.72
2018-06-22T00:14:41.815Z,10.73
2018-06-22T00:17:47.699Z,10.73
2018-06-22T00:20:53.576Z,10.72
2018-06-22T00:23:59.301Z,10.70
2018-06-22T00:27:04.407Z,10.69
2018-06-22T00:30:09.289Z,10.68
2018-06-22T00:33:14.142Z,10.66
2018-06-22T00:36:18.948Z,10.62
2018-06-22T00:39:24.826Z,10.58
2018-06-22T00:42:30.675Z,10.62
2018-06-22T00:45:36.464Z,10.60
2018-06-22T00:48:43.136Z,10.56
2018-06-22T00:51:49.317Z,10.55
2018-06-22T00:54:54.915Z,10.54
2018-06-22T00:58:00.937Z,10.55
2018-06-22T01:01:06.065Z,10.53
2018-06-22T01:04:11.876Z,10.54
2018-06-22T01:07:16.990Z,10.52
2018-06-22T01:10:21.804Z,10.53
2018-06-22T01:13:26.912Z,10.52
2018-06-22T01:16:32.015Z,10.52
2018-06-22T01:19:38.783Z,10.51
2018-06-22T01:22:44.969Z,10.50
2018-06-22T01:25:50.669Z,10.52
2018-06-22T01:30:00.665Z,10.55
2018-06-22T01:33:06.142Z,10.52
2018-06-22T01:36:12.267Z,10.59
2018-06-22T01:39:17.365Z,10.53
2018-06-22T01:42:23.223Z,10.51
2018-06-22T01:45:29.293Z,10.51
2018-06-22T01:48:34.136Z,10.46
2018-06-22T01:51:39.984Z,10.47
2018-06-22T01:54:45.467Z,10.52
2018-06-22T01:57:50.317Z,10.53
2018-06-22T02:00:55.781Z,10.53
2018-06-22T02:04:01.323Z,10.50
2018-06-22T02:07:06.450Z,10.52
2018-06-22T02:10:11.720Z,10.50
2018-06-22T02:13:16.820Z,10.53
2018-06-22T02:16:22.284Z,10.50
2018-06-22T02:19:28.315Z,10.50
2018-06-22T02:22:34.133Z,10.49
2018-06-22T02:25:40.663Z,10.48
2018-06-22T02:28:46.175Z,10.48
2018-06-22T02:31:52.263Z,10.45
2018-06-22T02:34:58.912Z,10.42
2018-06-22T02:38:05.212Z,10.42
2018-06-22T02:41:12.072Z,10.42
2018-06-22T02:44:17.755Z,10.43
2018-06-22T02:47:22.852Z,10.41
2018-06-22T02:50:28.658Z,10.38
2018-06-22T02:53:34.916Z,10.40
2018-06-22T02:56:41.761Z,10.41
2018-06-22T02:59:47.890Z,10.36
2018-06-22T03:02:53.195Z,10.34
2018-06-22T03:05:58.453Z,10.32
2018-06-22T03:09:03.296Z,10.27
2018-06-22T03:12:08.243Z,10.26
2018-06-22T03:15:13.060Z,10.28
2018-06-22T03:18:17.884Z,10.27
2018-06-22T03:21:23.420Z,10.20
2018-06-22T03:24:28.516Z,10.15
2018-06-22T03:27:33.817Z,10.17
2018-06-22T03:30:40.458Z,10.17
2018-06-22T03:33:47.152Z,10.12
2018-06-22T03:36:55.694Z,10.11
2018-06-22T03:40:01.555Z,10.12
2018-06-22T03:43:06.364Z,10.11
2018-06-22T03:46:11.464Z,10.14
2018-06-22T03:49:16.255Z,10.13
2018-06-22T03:52:22.343Z,10.11
2018-06-22T03:55:27.995Z,10.10
2018-06-22T03:58:34.004Z,10.12
2018-06-22T04:01:39.075Z,10.10
2018-06-22T04:04:45.264Z,10.12
2018-06-22T04:07:51.625Z,10.13
2018-06-22T04:10:57.438Z,10.15
2018-06-22T04:14:02.429Z,10.17
2018-06-22T04:17:07.210Z,10.19
2018-06-22T04:20:12.717Z,10.22
2018-06-22T04:23:17.803Z,10.24
2018-06-22T04:26:22.621Z,10.27
2018-06-22T04:29:29.542Z,10.30
2018-06-22T04:32:35.650Z,10.33
2018-06-22T04:35:41.627Z,10.38
2018-06-22T04:38:47.594Z,10.45
2018-06-22T04:41:53.768Z,10.57
2018-06-22T04:44:59.000Z,10.57
2018-06-22T04:48:07.701Z,10.64
2018-06-22T04:51:13.352Z,10.74
2018-06-22T04:54:19.251Z,10.81
2018-06-22T04:57:25.215Z,10.92
2018-06-22T05:00:30.281Z,11.00
2018-06-22T05:03:36.305Z,11.05
2018-06-22T05:06:41.516Z,11.07
2018-06-22T05:09:46.909Z,11.05
2018-06-22T05:12:53.060Z,11.13
2018-06-22T05:15:58.361Z,11.24
2018-06-22T05:19:04.503Z,11.28
2018-06-22T05:22:10.210Z,11.34
2018-06-22T05:25:17.100Z,11.23
2018-06-22T05:28:26.532Z,11.21
2018-06-22T05:31:31.957Z,11.27
2018-06-22T05:34:37.743Z,11.25
2018-06-22T05:37:43.568Z,11.29
2018-06-22T05:40:49.767Z,11.39
2018-06-22T05:43:55.823Z,11.39
2018-06-22T05:47:02.636Z,11.50
2018-06-22T05:50:08.359Z,11.56
2018-06-22T05:53:14.962Z,11.61
2018-06-22T05:56:20.643Z,11.64
2018-06-22T05:59:26.515Z,11.68
2018-06-22T06:02:31.640Z,11.76
2018-06-22T06:05:42.232Z,11.79
2018-06-22T06:08:57.020Z,11.81
2018-06-22T06:12:08.241Z,11.84
2018-06-22T06:15:13.727Z,11.80
2018-06-22T06:18:19.327Z,11.80
2018-06-22T06:21:24.416Z,11.83
2018-06-22T06:24:29.992Z,11.89
2018-06-22T06:27:34.902Z,11.98
2018-06-22T06:30:40.976Z,12.08
2018-06-22T06:33:46.438Z,12.12
2018-06-22T06:36:51.246Z,12.19
2018-06-22T06:39:57.116Z,12.23
2018-06-22T06:43:02.233Z,12.29
2018-06-22T06:46:07.943Z,12.28
2018-06-22T06:49:12.786Z,12.25
2018-06-22T06:52:18.184Z,12.28
2018-06-22T06:55:23.801Z,12.27
2018-06-22T06:58:28.590Z,12.21
2018-06-22T07:01:33.643Z,12.19
2018-06-22T07:04:39.232Z,12.29
2018-06-22T07:07:44.375Z,12.28
2018-06-22T07:10:50.486Z,12.37
2018-06-22T07:13:56.009Z,12.38
2018-06-22T07:17:01.086Z,12.39
2018-06-22T07:20:08.645Z,12.47
2018-06-22T07:23:14.330Z,12.55
2018-06-22T07:26:19.401Z,12.62
2018-06-22T07:29:25.392Z,12.67
2018-06-22T07:32:30.516Z,12.74
2018-06-22T07:35:36.528Z,12.76
2018-06-22T07:38:42.600Z,12.78
2018-06-22T07:41:48.655Z,12.85
2018-06-22T07:44:53.744Z,12.96
2018-06-22T07:47:58.822Z,13.04
2018-06-22T07:51:04.904Z,13.10
2018-06-22T07:54:11.379Z,13.17
2018-06-22T07:57:17.742Z,13.25
2018-06-22T08:00:24.594Z,13.31
2018-06-22T08:03:30.573Z,13.37
2018-06-22T08:06:35.764Z,13.44
2018-06-22T08:09:42.740Z,13.49
2018-06-22T08:12:48.779Z,13.56
2018-06-22T08:15:54.580Z,13.63
2018-06-22T08:18:59.789Z,13.70
2018-06-22T08:22:06.850Z,13.78
2018-06-22T08:25:12.272Z,13.87
2018-06-22T08:28:17.964Z,13.93
2018-06-22T08:31:23.808Z,14.04
2018-06-22T08:34:30.500Z,14.12
2018-06-22T08:37:36.507Z,14.18
2018-06-22T08:40:42.619Z,14.23
2018-06-22T08:43:48.238Z,14.34
2018-06-22T08:46:55.252Z,14.39
2018-06-22T08:50:01.295Z,14.49
2018-06-22T08:53:07.269Z,14.57
2018-06-22T08:56:14.371Z,14.58
2018-06-22T08:59:20.258Z,14.63
2018-06-22T09:02:26.228Z,14.69
2018-06-22T09:05:31.315Z,14.72
2018-06-22T09:08:37.704Z,14.74
2018-06-22T09:11:44.424Z,14.77
2018-06-22T09:14:50.325Z,14.80
2018-06-22T09:17:55.406Z,14.87
2018-06-22T09:21:00.460Z,14.93
2018-06-22T09:24:05.568Z,14.98
2018-06-22T09:27:10.653Z,15.04
2018-06-22T09:30:15.735Z,15.08
2018-06-22T09:33:20.824Z,15.17
2018-06-22T09:36:26.221Z,15.23
2018-06-22T09:39:33.020Z,15.32
2018-06-22T09:42:38.968Z,15.39
2018-06-22T09:45:45.008Z,15.44
2018-06-22T09:48:50.152Z,15.52
2018-06-22T09:51:55.330Z,15.66
2018-06-22T09:55:00.486Z,15.74
2018-06-22T09:58:06.606Z,15.84
2018-06-22T10:01:11.800Z,15.91
2018-06-22T10:04:17.828Z,15.96
2018-06-22T10:07:22.901Z,16.07
2018-06-22T10:10:28.933Z,16.18
2018-06-22T10:13:36.284Z,16.33
2018-06-22T10:16:42.028Z,16.32
2018-06-22T10:19:48.139Z,16.32
2018-06-22T10:22:53.253Z,16.28
2018-06-22T10:25:58.744Z,16.26
2018-06-22T10:29:05.183Z,16.32
2018-06-22T10:32:10.481Z,16.40
2018-06-22T10:35:16.303Z,16.44
2018-06-22T10:38:21.735Z,16.50
2018-06-22T10:41:28.776Z,16.57
2018-06-22T10:44:33.868Z,16.65
2018-06-22T10:47:38.983Z,16.72
2018-06-22T10:50:44.652Z,16.73
2018-06-22T10:53:51.424Z,16.77
2018-06-22T10:56:57.671Z,16.90
2018-06-22T11:00:03.906Z,16.87
2018-06-22T11:03:09.092Z,16.93
2018-06-22T11:06:14.584Z,16.99
2018-06-22T11:09:21.964Z,17.06
2018-06-22T11:12:28.085Z,17.16
2018-06-22T11:15:33.317Z,17.19
2018-06-22T11:18:40.355Z,17.21
2018-06-22T11:21:46.058Z,17.24
2018-06-22T11:24:52.569Z,17.28
2018-06-22T11:27:58.816Z,17.36
2018-06-22T11:31:03.912Z,17.42
2018-06-22T11:34:09.817Z,17.46
2018-06-22T11:37:16.049Z,17.49
2018-06-22T11:40:22.944Z,17.52
2018-06-22T11:43:28.874Z,17.55
2018-06-22T11:46:36.168Z,17.59
2018-06-22T11:49:42.256Z,17.63
2018-06-22T11:52:49.415Z,17.61
2018-06-22T11:55:55.765Z,17.66
2018-06-22T11:59:01.178Z,17.69
2018-06-22T12:02:08.277Z,17.73
2018-06-22T12:05:13.862Z,17.75
2018-06-22T12:08:19.912Z,17.80
2018-06-22T12:11:25.377Z,17.79
2018-06-22T12:14:30.965Z,17.81
2018-06-22T12:17:37.065Z,17.86
2018-06-22T12:20:42.480Z,17.88
2018-06-22T12:23:49.498Z,17.91
2018-06-22T12:26:55.143Z,17.93
2018-06-22T12:30:00.193Z,17.90
2018-06-22T12:33:05.304Z,17.90
2018-06-22T12:36:11.892Z,17.96
2018-06-22T12:39:17.518Z,18.03
2018-06-22T12:42:22.612Z,18.09
2018-06-22T12:45:28.617Z,18.09
2018-06-22T12:48:34.515Z,18.10
2018-06-22T12:51:39.946Z,18.10
2018-06-22T12:54:45.415Z,18.12
2018-06-22T12:57:50.514Z,18.14
2018-06-22T13:00:57.367Z,18.14
2018-06-22T13:04:03.976Z,18.14
2018-06-22T13:07:09.768Z,18.12
2018-06-22T13:10:16.141Z,18.08
2018-06-22T13:13:21.952Z,18.07
2018-06-22T13:16:28.105Z,18.04
2018-06-22T13:19:33.911Z,17.98
2018-06-22T13:22:39.718Z,18.00
2018-06-22T13:25:45.734Z,18.02
2018-06-22T13:28:51.439Z,18.00
2018-06-22T13:31:56.522Z,17.98
2018-06-22T13:35:01.948Z,17.99
2018-06-22T13:38:06.763Z,17.96
2018-06-22T13:41:12.596Z,17.95
2018-06-22T13:44:18.552Z,17.90
2018-06-22T13:47:24.220Z,17.86
2018-06-22T13:50:29.539Z,17.85
2018-06-22T13:53:35.527Z,17.82
2018-06-22T13:56:40.629Z,17.82
2018-06-22T13:59:45.729Z,17.86
2018-06-22T14:02:51.688Z,17.88
2018-06-22T14:06:02.407Z,17.89
2018-06-22T14:09:10.425Z,17.95
2018-06-22T14:12:16.708Z,17.97
2018-06-22T14:15:22.978Z,17.96
2018-06-22T14:18:29.057Z,17.95
2018-06-22T14:21:35.288Z,17.93
2018-06-22T14:24:41.397Z,17.96
2018-06-22T14:27:47.295Z,17.97
2018-06-22T14:30:52.748Z,17.93
2018-06-22T14:33:58.532Z,17.89
2018-06-22T14:37:07.978Z,17.92
2018-06-22T14:40:14.112Z,17.93
2018-06-22T14:43:20.269Z,17.95
2018-06-22T14:46:26.160Z,17.93
2018-06-22T14:49:30.980Z,17.89
2018-06-22T14:52:37.115Z,17.90
2018-06-22T14:55:47.481Z,17.91
2018-06-22T14:58:58.028Z,17.91
2018-06-22T15:02:08.933Z,17.94
2018-06-22T15:05:19.909Z,17.99
2018-06-22T15:08:26.964Z,18.05
2018-06-22T15:11:33.320Z,18.09
2018-06-22T15:14:38.630Z,18.11
2018-06-22T15:17:49.000Z,18.06
2018-06-22T15:20:54.613Z,18.00
2018-06-22T15:23:59.449Z,17.97
2018-06-22T15:27:05.640Z,17.94
2018-06-22T15:30:11.478Z,17.93
2018-06-22T15:33:23.488Z,17.93
2018-06-22T15:36:34.828Z,17.92
2018-06-22T15:39:46.163Z,17.95
2018-06-22T15:42:56.384Z,17.97
2018-06-22T15:46:06.576Z,17.98
2018-06-22T15:49:17.747Z,17.91
2018-06-22T15:52:28.084Z,17.86
2018-06-22T15:55:37.729Z,17.80
2018-06-22T15:58:43.832Z,17.71
2018-06-22T16:01:49.240Z,17.58
2018-06-22T16:04:54.067Z,17.49
2018-06-22T16:07:59.150Z,17.41
2018-06-22T16:11:05.142Z,17.30
2018-06-22T16:14:16.288Z,17.25
2018-06-22T16:17:27.690Z,17.19
2018-06-22T16:20:38.617Z,17.17
2018-06-22T16:23:49.656Z,17.15
2018-06-22T16:27:02.065Z,17.11
2018-06-22T16:30:08.515Z,17.08
2018-06-22T16:33:15.608Z,17.05
2018-06-22T16:36:21.468Z,17.01
2018-06-22T16:39:28.515Z,17.00
2018-06-22T16:42:34.373Z,17.00
2018-06-22T16:45:40.203Z,16.97
2018-06-22T16:48:45.695Z,16.91
2018-06-22T16:51:50.800Z,16.84
2018-06-22T16:54:56.201Z,16.75
2018-06-22T16:58:02.638Z,16.72
2018-06-22T17:01:10.663Z,16.69
2018-06-22T17:04:16.519Z,16.65
2018-06-22T17:07:28.122Z,16.60
2018-06-22T17:10:38.903Z,16.56
2018-06-22T17:13:50.119Z,16.52
2018-06-22T17:17:01.090Z,16.45
2018-06-22T17:20:06.989Z,16.37
2018-06-22T17:23:13.320Z,16.31
2018-06-22T17:26:19.534Z,16.27
2018-06-22T17:29:24.660Z,16.20
2018-06-22T17:32:30.076Z,16.18
2018-06-22T17:35:35.654Z,16.12
2018-06-22T17:38:40.928Z,16.08
2018-06-22T17:41:47.012Z,16.03
2018-06-22T17:44:52.211Z,16.00
2018-06-22T17:47:57.380Z,15.97
2018-06-22T17:51:03.445Z,15.92
2018-06-22T17:54:09.572Z,15.89
2018-06-22T17:57:14.976Z,15.84
2018-06-22T18:00:26.209Z,15.81
2018-06-22T18:03:37.440Z,15.79
2018-06-22T18:06:48.694Z,15.73
2018-06-22T18:10:00.185Z,15.69
2018-06-22T18:13:05.351Z,15.65
2018-06-22T18:16:10.606Z,15.62
2018-06-22T18:19:15.660Z,15.59
2018-06-22T18:22:21.164Z,15.55
2018-06-22T18:25:26.604Z,15.51
2018-06-22T18:28:32.731Z,15.48
2018-06-22T18:31:37.604Z,15.47
2018-06-22T18:34:43.301Z,15.42
2018-06-22T18:37:49.856Z,15.38
2018-06-22T18:40:56.525Z,15.35
2018-06-22T18:44:03.528Z,15.33
2018-06-22T18:47:09.780Z,15.31
2018-06-22T18:50:15.868Z,15.27
2018-06-22T18:53:26.985Z,15.26
2018-06-22T18:58:45.093Z,15.20
2018-06-22T19:01:56.400Z,15.16
2018-06-22T19:05:01.580Z,15.12
2018-06-22T19:08:07.985Z,15.06
2018-06-22T19:11:14.039Z,15.04
2018-06-22T19:14:20.033Z,15.01
2018-06-22T19:17:25.452Z,15.00
2018-06-22T19:20:30.896Z,14.94
2018-06-22T19:23:37.695Z,14.88
2018-06-22T19:26:43.957Z,14.84
2018-06-22T19:29:49.867Z,14.80
2018-06-22T19:32:54.964Z,14.77
2018-06-22T19:36:00.022Z,14.74
2018-06-22T19:39:07.896Z,14.69
2018-06-22T19:42:13.592Z,14.66
2018-06-22T19:45:24.157Z,14.62
2018-06-22T19:48:35.431Z,14.61
2018-06-22T19:51:46.274Z,14.56
2018-06-22T19:54:52.500Z,14.52
2018-06-22T19:57:57.993Z,14.49
2018-06-22T20:01:03.200Z,14.47
2018-06-22T20:04:10.900Z,14.42
2018-06-22T20:07:16.304Z,14.41
2018-06-22T20:10:21.356Z,14.40
2018-06-22T20:13:26.447Z,14.36
2018-06-22T20:16:31.223Z,14.33
2018-06-22T20:19:36.038Z,14.30
2018-06-22T20:22:41.667Z,14.25
2018-06-22T20:25:48.893Z,14.22
2018-06-22T20:28:55.876Z,14.20
2018-06-22T20:32:07.168Z,14.11
2018-06-22T20:35:17.663Z,14.05
2018-06-22T20:38:37.748Z,13.97
2018-06-22T20:41:49.180Z,13.96
2018-06-22T20:45:00.187Z,13.93
2018-06-22T20:48:11.472Z,13.89
2018-06-22T20:51:16.471Z,13.89
2018-06-22T20:54:22.399Z,13.86
2018-06-22T20:57:28.300Z,13.77
2018-06-22T21:00:34.020Z,13.72
2018-06-22T21:03:39.364Z,13.71
2018-06-22T21:06:44.848Z,13.69
2018-06-22T21:09:50.860Z,13.67
2018-06-22T21:12:56.115Z,13.56
2018-06-22T21:16:02.163Z,13.57
2018-06-22T21:19:07.568Z,13.49
2018-06-22T21:22:14.062Z,13.47
2018-06-22T21:25:19.664Z,13.42
2018-06-22T21:28:30.336Z,13.42
2018-06-22T21:31:40.573Z,13.40
2018-06-22T21:34:50.996Z,13.29
2018-06-22T21:38:01.753Z,13.29
2018-06-22T21:41:08.420Z,13.16
2018-06-22T21:44:14.125Z,13.14
2018-06-22T21:47:18.905Z,13.15
2018-06-22T21:50:25.433Z,13.17
2018-06-22T21:53:32.808Z,13.16
2018-06-22T21:56:38.899Z,13.15
2018-06-22T21:59:43.978Z,13.08
2018-06-22T22:02:49.413Z,12.97
2018-06-22T22:05:55.168Z,12.95
2018-06-22T22:09:01.538Z,12.96
2018-06-22T22:12:07.390Z,12.99
2018-06-22T22:15:13.428Z,12.99
2018-06-22T22:18:19.336Z,12.96
2018-06-22T22:21:24.520Z,12.92
2018-06-22T22:24:29.741Z,12.83
2018-06-22T22:27:35.151Z,12.84
2018-06-22T22:30:40.808Z,12.78
2018-06-22T22:33:47.025Z,12.79
2018-06-22T22:36:52.920Z,12.71
2018-06-22T22:39:58.385Z,12.73
2018-06-22T22:43:03.718Z,12.71
2018-06-22T22:46:09.416Z,12.62
2018-06-22T22:49:14.521Z,12.62
2018-06-22T22:52:20.599Z,12.45
2018-06-22T22:55:26.608Z,12.46
2018-06-22T22:58:33.916Z,12.40
2018-06-22T23:01:39.996Z,12.39
2018-06-22T23:04:45.244Z,12.32
2018-06-22T23:07:50.665Z,12.29
2018-06-22T23:10:56.318Z,12.30
2018-06-22T23:14:01.453Z,12.30
2018-06-22T23:17:06.608Z,12.23
2018-06-22T23:20:11.667Z,12.20
2018-06-22T23:23:29.171Z,12.21
2018-06-22T23:26:34.697Z,12.17
2018-06-22T23:29:40.670Z,12.06
2018-06-22T23:32:46.544Z,12.00
2018-06-22T23:35:52.984Z,11.89
2018-06-22T23:38:58.693Z,11.85
2018-06-22T23:42:05.505Z,11.78
2018-06-22T23:45:11.216Z,11.78
2018-06-22T23:48:17.333Z,11.79
2018-06-22T23:51:23.432Z,11.80
2018-06-22T23:54:28.891Z,11.74
2018-06-22T23:57:34.368Z,11.72
